Time;durP1;ratioP1;P1;durP2;ratioP2;P2;SDS_P1;SDS_P2;PMS_P1;PMS_P2;Temp;Humidity;BMP_temperature;BMP_pressure;BME280_temperature;BME280_humidity;BME280_pressure;Samples;Min_cycle;Max_cycle;Signal;HPM_P1;HPM_P2
2023/06/21 00:01:30;;;;;;;32.75;23.90;;;19.90;99.90;;;;;;5021440;28;20041;-72
2023/06/21 00:03:57;;;;;;;42.72;25.20;;;19.80;99.90;;;;;;5030109;28;20177;-72
2023/06/21 00:06:23;;;;;;;38.20;25.75;;;19.80;99.90;;;;;;5029040;28;20025;-72
2023/06/21 00:08:49;;;;;;;40.33;26.83;;;19.80;99.90;;;;;;5021665;28;20076;-72
2023/06/21 00:11:15;;;;;;;37.55;26.30;;;19.70;99.90;;;;;;5027292;28;20666;-72
2023/06/21 00:13:40;;;;;;;44.85;26.35;;;19.70;99.90;;;;;;5024036;28;20111;-72
2023/06/21 00:16:06;;;;;;;41.30;27.35;;;19.70;99.90;;;;;;5021390;28;20026;-72
2023/06/21 00:18:32;;;;;;;42.92;27.30;;;19.70;99.90;;;;;;5024241;28;20054;-72
2023/06/21 00:20:59;;;;;;;40.95;26.25;;;19.60;99.90;;;;;;5023153;28;20021;-72
2023/06/21 00:23:25;;;;;;;42.72;26.45;;;19.70;99.90;;;;;;5029444;28;20026;-72
2023/06/21 00:25:51;;;;;;;43.88;26.58;;;19.60;99.90;;;;;;5020965;28;20018;-72
2023/06/21 00:28:16;;;;;;;37.40;25.20;;;19.60;99.90;;;;;;5018667;28;20452;-72
2023/06/21 00:30:42;;;;;;;38.78;24.73;;;19.60;99.90;;;;;;5027363;28;20080;-72
2023/06/21 00:33:07;;;;;;;38.67;24.23;;;19.60;99.90;;;;;;5032073;28;20013;-72
2023/06/21 00:35:33;;;;;;;40.90;25.92;;;19.50;99.90;;;;;;5023129;28;20038;-72
2023/06/21 00:37:59;;;;;;;38.22;26.00;;;19.50;99.90;;;;;;5026059;28;20037;-72
2023/06/21 00:40:25;;;;;;;41.00;25.83;;;19.50;99.90;;;;;;5014958;28;20052;-72
2023/06/21 00:42:54;;;;;;;40.47;25.88;;;19.50;99.90;;;;;;5018786;28;20045;-72
2023/06/21 00:45:21;;;;;;;39.25;25.48;;;19.50;99.90;;;;;;5023459;28;20045;-72
2023/06/21 00:47:46;;;;;;;45.00;25.45;;;19.50;99.90;;;;;;5018250;28;20065;-72
2023/06/21 00:50:13;;;;;;;38.00;25.38;;;19.40;99.90;;;;;;5025044;28;20061;-72
2023/06/21 00:52:40;;;;;;;38.90;24.45;;;19.40;99.90;;;;;;5024362;28;20040;-72
2023/06/21 00:55:08;;;;;;;35.17;25.33;;;19.40;99.90;;;;;;5021039;28;20026;-72
2023/06/21 00:57:34;;;;;;;39.78;25.52;;;19.40;99.90;;;;;;5019747;28;20121;-72
2023/06/21 01:00:00;;;;;;;37.78;24.60;;;19.40;99.90;;;;;;5019332;28;20434;-72
2023/06/21 01:02:28;;;;;;;35.63;24.42;;;19.40;99.90;;;;;;5031650;28;20025;-72
2023/06/21 01:04:53;;;;;;;42.38;26.30;;;19.40;99.90;;;;;;5025701;28;20033;-72
2023/06/21 01:07:29;;;;;;;45.90;25.33;;;19.40;99.90;;;;;;5013823;28;20045;-72
2023/06/21 01:10:13;;;;;;;;;;;19.40;99.90;;;;;;5015333;28;20484;-72
2023/06/21 01:13:26;;;;;;;40.47;24.83;;;19.40;99.90;;;;;;5017400;28;20315;-72
2023/06/21 01:16:01;;;;;;;40.22;25.98;;;19.40;99.90;;;;;;5017305;28;20385;-72
2023/06/21 01:18:27;;;;;;;;;;;19.40;99.90;;;;;;5025700;28;20025;-72
2023/06/21 01:20:57;;;;;;;37.47;24.65;;;19.40;99.90;;;;;;5022068;28;19916;-72
2023/06/21 01:23:25;;;;;;;40.28;25.90;;;19.30;99.90;;;;;;5021078;28;20029;-72
2023/06/21 01:25:54;;;;;;;40.25;27.52;;;19.40;99.90;;;;;;5022292;28;20022;-72
2023/06/21 01:28:58;;;;;;;47.63;26.70;;;19.30;99.90;;;;;;5019586;28;20022;-72
2023/06/21 01:31:24;;;;;;;46.92;27.38;;;19.30;99.90;;;;;;5021784;28;20389;-72
2023/06/21 01:33:50;;;;;;;40.40;28.10;;;19.30;99.90;;;;;;5023748;28;20031;-72
2023/06/21 01:36:16;;;;;;;43.10;27.67;;;19.30;99.90;;;;;;5031270;28;20025;-72
2023/06/21 01:38:44;;;;;;;43.70;27.70;;;19.30;99.90;;;;;;5016764;28;20034;-72
2023/06/21 01:41:12;;;;;;;53.08;30.52;;;19.30;99.90;;;;;;5022142;28;20022;-72
2023/06/21 01:43:38;;;;;;;46.00;28.70;;;19.30;99.90;;;;;;5022274;28;20069;-72
2023/06/21 01:46:06;;;;;;;47.97;29.25;;;19.30;99.90;;;;;;5024516;28;20443;-72
2023/06/21 01:48:34;;;;;;;45.35;29.73;;;19.30;99.90;;;;;;5021178;28;20034;-72
2023/06/21 01:51:02;;;;;;;42.80;28.42;;;19.30;99.90;;;;;;5023798;28;20083;-72
2023/06/21 01:53:28;;;;;;;44.83;28.52;;;19.30;99.90;;;;;;5023986;28;20025;-72
2023/06/21 01:55:57;;;;;;;45.45;30.00;;;19.30;99.90;;;;;;5030435;28;20075;-72
2023/06/21 01:58:22;;;;;;;43.00;28.55;;;19.30;99.90;;;;;;5030013;28;20025;-72
2023/06/21 02:00:49;;;;;;;47.15;28.70;;;19.30;99.90;;;;;;5017094;28;20033;-72
2023/06/21 02:03:16;;;;;;;43.35;27.38;;;19.30;99.90;;;;;;5022999;28;20029;-72
2023/06/21 02:05:43;;;;;;;47.97;28.15;;;19.20;99.90;;;;;;5020419;28;20018;-72
2023/06/21 02:08:15;;;;;;;48.83;27.05;;;19.20;99.90;;;;;;5024842;28;20120;-72
2023/06/21 02:10:42;;;;;;;42.13;26.90;;;19.20;99.90;;;;;;5019571;28;20116;-72
2023/06/21 02:13:08;;;;;;;38.58;26.05;;;19.20;99.90;;;;;;5029652;28;20064;-72
2023/06/21 02:15:34;;;;;;;39.10;26.02;;;19.20;99.90;;;;;;5025017;28;20037;-72
2023/06/21 02:18:01;;;;;;;39.60;24.15;;;19.20;99.90;;;;;;5020968;28;20108;-72
2023/06/21 02:20:28;;;;;;;38.97;25.30;;;19.20;99.90;;;;;;5013181;28;20101;-72
2023/06/21 02:22:54;;;;;;;41.55;24.92;;;19.10;99.90;;;;;;5026253;28;20547;-72
2023/06/21 02:25:21;;;;;;;34.30;24.60;;;19.10;99.90;;;;;;5019713;28;20104;-72
2023/06/21 02:27:47;;;;;;;42.17;25.48;;;19.10;99.90;;;;;;5025167;28;20033;-72
2023/06/21 02:30:13;;;;;;;43.10;25.75;;;19.10;99.90;;;;;;5018353;28;20022;-72
2023/06/21 02:32:39;;;;;;;43.78;25.00;;;19.10;99.90;;;;;;5024862;28;20061;-72
2023/06/21 02:35:05;;;;;;;42.58;25.23;;;19.10;99.90;;;;;;5029172;28;20400;-72
2023/06/21 02:37:31;;;;;;;42.38;25.65;;;19.10;99.90;;;;;;5025859;28;20033;-72
2023/06/21 02:39:57;;;;;;;42.53;26.10;;;19.10;99.90;;;;;;5027149;28;20406;-72
2023/06/21 02:42:25;;;;;;;44.30;26.27;;;19.10;99.90;;;;;;5018890;28;20369;-72
2023/06/21 02:44:51;;;;;;;44.83;26.73;;;19.10;99.90;;;;;;5021747;28;20057;-72
2023/06/21 02:47:16;;;;;;;40.25;24.88;;;19.10;99.90;;;;;;5020038;28;20389;-72
2023/06/21 02:49:42;;;;;;;44.05;27.02;;;19.10;99.90;;;;;;5025143;28;20454;-72
2023/06/21 02:52:08;;;;;;;44.72;27.60;;;19.10;99.90;;;;;;5016452;28;20025;-72
2023/06/21 02:54:33;;;;;;;41.40;26.45;;;19.10;99.90;;;;;;5023685;28;20028;-72
2023/06/21 02:56:59;;;;;;;43.45;26.08;;;19.10;99.90;;;;;;5019634;28;20089;-72
2023/06/21 02:59:28;;;;;;;43.15;26.88;;;19.10;99.90;;;;;;5025382;28;20030;-72
2023/06/21 03:01:54;;;;;;;46.72;26.85;;;19.10;99.90;;;;;;5020085;28;20026;-72
2023/06/21 03:04:20;;;;;;;45.15;25.95;;;19.10;99.90;;;;;;5022748;28;20520;-72
2023/06/21 03:06:46;;;;;;;44.42;26.13;;;19.10;99.90;;;;;;5021968;28;20034;-72
2023/06/21 03:09:11;;;;;;;40.30;25.92;;;19.10;99.90;;;;;;5018250;28;20037;-72
2023/06/21 03:11:37;;;;;;;37.65;24.15;;;19.10;99.90;;;;;;5013004;28;20026;-72
2023/06/21 03:14:03;;;;;;;42.03;24.88;;;19.10;99.90;;;;;;5024023;28;20037;-72
2023/06/21 03:16:30;;;;;;;43.38;23.73;;;19.10;99.90;;;;;;5024329;28;20042;-72
2023/06/21 03:18:55;;;;;;;38.40;22.50;;;19.10;99.90;;;;;;5029563;28;20056;-72
2023/06/21 03:21:22;;;;;;;38.58;21.98;;;19.10;99.90;;;;;;5018459;28;20038;-72
2023/06/21 03:23:48;;;;;;;36.58;21.38;;;19.10;99.90;;;;;;5027851;28;20334;-72
2023/06/21 03:26:14;;;;;;;37.97;21.40;;;19.10;99.90;;;;;;5026829;28;20421;-72
2023/06/21 03:28:41;;;;;;;34.00;20.50;;;19.10;99.90;;;;;;5025531;28;20079;-72
2023/06/21 03:31:06;;;;;;;33.38;18.90;;;19.10;99.90;;;;;;5028377;28;20134;-72
2023/06/21 03:33:32;;;;;;;33.17;18.90;;;19.10;99.90;;;;;;5027595;28;20428;-72
2023/06/21 03:35:58;;;;;;;28.48;16.95;;;19.10;99.90;;;;;;5031768;28;20056;-72
2023/06/21 03:38:24;;;;;;;28.35;15.88;;;19.10;99.90;;;;;;5024914;28;20034;-72
2023/06/21 03:40:49;;;;;;;28.02;15.25;;;19.00;99.90;;;;;;5027306;28;20025;-72
2023/06/21 03:43:15;;;;;;;22.83;13.68;;;19.00;99.90;;;;;;5032701;28;20029;-72
2023/06/21 03:45:41;;;;;;;25.80;14.45;;;19.00;99.90;;;;;;5030302;28;20487;-72
2023/06/21 03:48:07;;;;;;;21.85;12.82;;;19.00;99.90;;;;;;5027832;28;20481;-72
2023/06/21 03:50:33;;;;;;;21.70;11.45;;;19.00;99.90;;;;;;5022471;28;20029;-72
2023/06/21 03:52:58;;;;;;;18.05;11.27;;;19.00;99.90;;;;;;5019850;28;20021;-72
2023/06/21 03:55:24;;;;;;;20.58;10.60;;;19.00;99.90;;;;;;5016151;28;20053;-72
2023/06/21 03:57:50;;;;;;;15.45;8.93;;;19.00;99.90;;;;;;5021267;28;20572;-72
2023/06/21 04:00:16;;;;;;;16.10;8.30;;;19.00;99.90;;;;;;5023034;28;20045;-72
2023/06/21 04:02:43;;;;;;;14.25;8.23;;;18.90;99.90;;;;;;5024279;28;20522;-72
2023/06/21 04:05:10;;;;;;;15.60;7.10;;;18.90;99.90;;;;;;5025404;28;20029;-72
2023/06/21 04:07:37;;;;;;;14.50;7.13;;;18.90;99.90;;;;;;5029254;28;20120;-72
2023/06/21 04:10:03;;;;;;;15.02;6.68;;;18.90;99.90;;;;;;5013713;28;20053;-72
2023/06/21 04:12:29;;;;;;;13.57;6.10;;;18.90;99.90;;;;;;5025703;28;20504;-72
2023/06/21 04:14:56;;;;;;;12.10;5.22;;;18.90;99.90;;;;;;5025320;28;20024;-72
2023/06/21 04:17:22;;;;;;;10.05;5.03;;;18.80;99.90;;;;;;5031531;28;20091;-72
2023/06/21 04:19:47;;;;;;;10.07;4.68;;;18.80;99.90;;;;;;5019344;28;20427;-72
2023/06/21 04:22:13;;;;;;;9.27;5.28;;;18.80;99.90;;;;;;5032849;28;20025;-72
2023/06/21 04:24:38;;;;;;;11.60;5.15;;;18.80;99.90;;;;;;5028294;28;20025;-72
2023/06/21 04:27:05;;;;;;;11.45;6.13;;;18.80;99.90;;;;;;5021390;28;20091;-72
2023/06/21 04:29:34;;;;;;;10.73;6.13;;;18.80;99.90;;;;;;5024283;28;20050;-72
2023/06/21 04:31:59;;;;;;;11.15;5.50;;;18.90;99.90;;;;;;5027294;28;20017;-72
2023/06/21 04:34:27;;;;;;;11.77;6.05;;;18.90;99.90;;;;;;5028150;28;20026;-72
2023/06/21 04:36:53;;;;;;;14.07;5.43;;;19.00;99.90;;;;;;5027145;28;20009;-72
2023/06/21 04:39:20;;;;;;;11.02;5.43;;;19.00;99.90;;;;;;5031442;28;20027;-72
2023/06/21 04:41:46;;;;;;;9.48;5.00;;;19.00;99.90;;;;;;5016561;28;20030;-72
2023/06/21 04:44:17;;;;;;;15.10;5.00;;;18.90;99.90;;;;;;5017673;28;20025;-72
2023/06/21 04:46:43;;;;;;;13.63;5.53;;;19.00;99.90;;;;;;5032673;28;20528;-72
2023/06/21 04:49:09;;;;;;;10.93;5.25;;;18.90;99.90;;;;;;5024005;28;20034;-72
2023/06/21 04:51:35;;;;;;;10.93;5.40;;;18.90;99.90;;;;;;5033036;28;20096;-72
2023/06/21 04:54:00;;;;;;;8.80;4.43;;;18.90;99.90;;;;;;5015968;28;20044;-72
2023/06/21 04:56:29;;;;;;;10.80;4.63;;;18.90;99.90;;;;;;5023961;28;20026;-72
2023/06/21 04:58:55;;;;;;;11.30;4.65;;;18.90;99.90;;;;;;5022025;28;20029;-72
2023/06/21 05:01:20;;;;;;;10.75;4.80;;;18.90;99.90;;;;;;5020799;28;20022;-72
2023/06/21 05:03:48;;;;;;;8.70;4.28;;;18.90;99.90;;;;;;5029696;28;20500;-72
2023/06/21 05:06:20;;;;;;;9.27;4.25;;;19.00;99.90;;;;;;5021464;28;20083;-73
2023/06/21 05:08:46;;;;;;;10.57;4.07;;;18.90;99.90;;;;;;5022061;28;20456;-72
2023/06/21 05:11:11;;;;;;;8.65;3.97;;;18.90;99.90;;;;;;5024011;28;20028;-72
2023/06/21 05:13:37;;;;;;;10.77;3.85;;;18.90;99.90;;;;;;5027600;28;20022;-72
2023/06/21 05:16:03;;;;;;;9.05;3.75;;;18.90;99.90;;;;;;5025935;28;20087;-72
2023/06/21 05:18:28;;;;;;;11.60;4.03;;;18.90;99.90;;;;;;5029429;28;20029;-72
2023/06/21 05:20:55;;;;;;;7.60;4.00;;;18.90;99.90;;;;;;5019968;28;20097;-72
2023/06/21 05:23:20;;;;;;;8.85;4.40;;;18.80;99.90;;;;;;5030547;28;20029;-72
2023/06/21 05:25:46;;;;;;;7.82;3.70;;;18.90;99.90;;;;;;5027181;28;20025;-72
2023/06/21 05:28:12;;;;;;;11.93;3.70;;;18.80;99.90;;;;;;5020494;28;20018;-72
2023/06/21 05:30:37;;;;;;;9.07;3.80;;;18.90;99.90;;;;;;5019530;28;20029;-72
2023/06/21 05:33:03;;;;;;;9.38;3.60;;;18.90;99.90;;;;;;5027664;28;20476;-72
2023/06/21 05:35:29;;;;;;;7.95;3.85;;;18.90;99.90;;;;;;5026418;28;20093;-72
2023/06/21 05:37:54;;;;;;;11.65;4.10;;;18.90;99.90;;;;;;5023690;28;20029;-72
2023/06/21 05:40:20;;;;;;;6.18;3.90;;;19.00;99.90;;;;;;5022379;28;20033;-72
2023/06/21 05:42:46;;;;;;;9.35;4.05;;;19.00;99.90;;;;;;5029956;28;20021;-72
2023/06/21 05:45:12;;;;;;;8.60;3.97;;;19.00;99.90;;;;;;5016470;28;20048;-72
2023/06/21 05:47:37;;;;;;;9.77;4.05;;;19.00;99.90;;;;;;5015222;28;20133;-72
2023/06/21 05:50:03;;;;;;;8.32;4.15;;;19.00;99.90;;;;;;5019291;28;20017;-72
2023/06/21 05:52:30;;;;;;;9.40;4.00;;;19.00;99.90;;;;;;5029495;28;20034;-72
2023/06/21 05:54:55;;;;;;;7.93;3.30;;;19.10;99.90;;;;;;5030411;28;20108;-72
2023/06/21 05:57:21;;;;;;;5.72;3.40;;;19.10;99.90;;;;;;5027132;28;20536;-72
2023/06/21 05:59:47;;;;;;;13.05;3.45;;;19.10;99.90;;;;;;5026401;28;20025;-72
2023/06/21 06:02:12;;;;;;;7.20;2.80;;;19.10;99.90;;;;;;5026452;28;20032;-72
2023/06/21 06:04:39;;;;;;;6.38;2.65;;;19.20;99.90;;;;;;5029895;28;20052;-72
2023/06/21 06:07:05;;;;;;;5.38;2.60;;;19.10;99.90;;;;;;5019359;28;20021;-72
2023/06/21 06:09:31;;;;;;;7.78;2.55;;;19.20;99.90;;;;;;5021212;28;20029;-72
2023/06/21 06:11:56;;;;;;;10.35;3.08;;;19.10;99.90;;;;;;5024479;28;20018;-72
2023/06/21 06:14:25;;;;;;;8.25;2.42;;;19.10;99.90;;;;;;5020761;28;20025;-72
2023/06/21 06:16:50;;;;;;;8.00;2.42;;;19.10;99.90;;;;;;5025331;28;20027;-72
2023/06/21 06:19:16;;;;;;;8.15;2.80;;;19.10;99.90;;;;;;5017253;28;20455;-72
2023/06/21 06:21:42;;;;;;;6.03;2.70;;;19.20;99.90;;;;;;5019217;28;20025;-72
2023/06/21 06:24:07;;;;;;;8.55;2.40;;;19.20;99.90;;;;;;5026015;28;20021;-72
2023/06/21 06:26:33;;;;;;;6.88;2.70;;;19.30;99.90;;;;;;5024344;28;20030;-72
2023/06/21 06:28:58;;;;;;;9.45;2.35;;;19.40;99.90;;;;;;5019394;28;20041;-72
2023/06/21 06:31:26;;;;;;;6.63;2.70;;;19.40;99.90;;;;;;5015395;28;20436;-72
2023/06/21 06:33:52;;;;;;;5.50;2.33;;;19.40;99.90;;;;;;5015186;28;20104;-72
2023/06/21 06:36:18;;;;;;;6.20;2.50;;;19.50;99.90;;;;;;5021062;28;20026;-72
2023/06/21 06:38:52;;;;;;;6.00;2.33;;;19.50;99.90;;;;;;5030326;28;20100;-73
2023/06/21 06:41:18;;;;;;;7.10;2.22;;;19.50;99.90;;;;;;5030990;28;20147;-73
2023/06/21 06:43:44;;;;;;;9.25;2.45;;;19.60;99.90;;;;;;5018487;28;20403;-72
2023/06/21 06:46:10;;;;;;;8.82;2.08;;;19.70;99.90;;;;;;5023934;28;20054;-72
2023/06/21 06:48:35;;;;;;;7.03;2.70;;;19.80;99.90;;;;;;5019652;28;20033;-72
2023/06/21 06:51:01;;;;;;;9.07;2.80;;;19.80;99.90;;;;;;5030312;28;20024;-72
2023/06/21 06:53:27;;;;;;;6.55;2.65;;;19.90;99.90;;;;;;5025057;28;20030;-72
2023/06/21 06:55:54;;;;;;;5.30;2.30;;;20.00;99.90;;;;;;5019367;28;20026;-72
2023/06/21 06:58:21;;;;;;;7.15;2.70;;;20.00;99.90;;;;;;5022383;28;20048;-72
2023/06/21 07:00:48;;;;;;;8.30;2.47;;;20.10;99.90;;;;;;5026528;28;20029;-72
2023/06/21 07:03:14;;;;;;;7.88;2.58;;;20.10;99.90;;;;;;5026415;28;20016;-72
2023/06/21 07:05:46;;;;;;;6.03;2.33;;;20.10;99.90;;;;;;5022516;28;20029;-72
2023/06/21 07:08:11;;;;;;;7.03;2.30;;;20.20;99.90;;;;;;5022081;28;20084;-72
2023/06/21 07:10:38;;;;;;;8.77;2.30;;;20.30;99.90;;;;;;5032715;28;20029;-72
2023/06/21 07:13:04;;;;;;;6.38;2.10;;;20.30;99.90;;;;;;5032035;28;20022;-72
2023/06/21 07:15:29;;;;;;;9.00;2.72;;;20.40;99.90;;;;;;5024249;28;20029;-72
2023/06/21 07:17:55;;;;;;;6.38;2.13;;;20.50;99.90;;;;;;5027683;28;20354;-73
2023/06/21 07:20:21;;;;;;;4.93;2.25;;;20.50;99.90;;;;;;5033461;28;20528;-72
2023/06/21 07:22:47;;;;;;;6.35;2.13;;;20.60;99.90;;;;;;5024441;28;20477;-72
2023/06/21 07:25:14;;;;;;;6.47;2.50;;;20.80;99.90;;;;;;5030447;28;20034;-72
2023/06/21 07:27:40;;;;;;;4.45;1.98;;;20.90;99.90;;;;;;5024541;28;20108;-72
2023/06/21 07:30:06;;;;;;;8.48;2.17;;;21.00;99.90;;;;;;5031965;28;20112;-72
2023/06/21 07:32:33;;;;;;;5.38;2.20;;;21.10;99.90;;;;;;5027879;28;20117;-72
2023/06/21 07:34:59;;;;;;;7.28;2.05;;;21.20;99.90;;;;;;5026343;28;20053;-73
2023/06/21 07:37:26;;;;;;;5.28;2.30;;;21.30;99.90;;;;;;5028647;28;20037;-72
2023/06/21 07:39:52;;;;;;;10.82;2.63;;;21.40;99.90;;;;;;5032898;28;20539;-72
2023/06/21 07:42:17;;;;;;;7.07;2.03;;;21.50;99.90;;;;;;5024958;28;20109;-72
2023/06/21 07:44:43;;;;;;;6.15;2.53;;;21.70;99.90;;;;;;5029832;28;20053;-72
2023/06/21 07:47:09;;;;;;;7.22;2.47;;;21.80;99.90;;;;;;5026672;28;20079;-72
2023/06/21 07:49:34;;;;;;;7.47;2.45;;;21.90;99.90;;;;;;5020896;28;20034;-72
2023/06/21 07:52:00;;;;;;;4.20;2.40;;;22.00;99.90;;;;;;5031348;28;20392;-72
2023/06/21 07:54:26;;;;;;;5.95;2.63;;;22.10;99.90;;;;;;5027551;28;20045;-72
2023/06/21 07:56:52;;;;;;;4.43;2.35;;;22.20;99.90;;;;;;5024656;28;20030;-72
2023/06/21 07:59:17;;;;;;;7.40;2.40;;;22.20;99.90;;;;;;5017849;28;20070;-72
2023/06/21 08:01:43;;;;;;;7.45;2.45;;;22.20;99.90;;;;;;5020073;28;20024;-76
2023/06/21 08:04:08;;;;;;;8.77;2.47;;;22.30;99.90;;;;;;5022720;28;20500;-73
2023/06/21 08:06:34;;;;;;;6.50;2.28;;;22.40;99.90;;;;;;5022311;28;20097;-73
2023/06/21 08:08:59;;;;;;;6.05;2.60;;;22.50;99.90;;;;;;5026203;28;20036;-73
2023/06/21 08:11:25;;;;;;;6.93;2.38;;;22.60;99.90;;;;;;5030954;28;20030;-72
2023/06/21 08:13:51;;;;;;;5.57;2.45;;;22.70;99.90;;;;;;5024055;28;20408;-73
2023/06/21 08:16:16;;;;;;;5.68;2.88;;;22.70;99.90;;;;;;5022343;28;20492;-73
2023/06/21 08:18:43;;;;;;;5.45;2.88;;;22.80;99.90;;;;;;5024291;28;20029;-72
2023/06/21 08:21:09;;;;;;;6.63;3.00;;;22.90;99.90;;;;;;5033730;28;20409;-73
2023/06/21 08:23:34;;;;;;;5.93;2.83;;;22.90;99.90;;;;;;5035653;28;20096;-73
2023/06/21 08:26:01;;;;;;;7.90;3.45;;;22.90;99.90;;;;;;5028326;28;20030;-72
2023/06/21 08:28:27;;;;;;;8.40;3.38;;;23.00;99.90;;;;;;5028560;28;20034;-72
2023/06/21 08:30:52;;;;;;;8.32;3.83;;;23.10;99.90;;;;;;5028633;28;20032;-73
2023/06/21 08:33:18;;;;;;;7.68;3.30;;;23.20;99.90;;;;;;5031203;28;20030;-72
2023/06/21 08:35:43;;;;;;;9.55;4.00;;;23.20;99.90;;;;;;5026605;28;20072;-72
2023/06/21 08:38:09;;;;;;;8.48;3.95;;;23.30;99.90;;;;;;5030703;28;20021;-72
2023/06/21 08:40:38;;;;;;;7.68;3.83;;;23.30;99.90;;;;;;5026112;28;20033;-72
2023/06/21 08:43:03;;;;;;;7.70;3.97;;;23.30;99.90;;;;;;5020310;28;20378;-72
2023/06/21 08:45:29;;;;;;;10.20;4.22;;;23.20;99.90;;;;;;5024738;28;20053;-72
2023/06/21 08:48:03;;;;;;;6.47;3.55;;;23.30;99.90;;;;;;5028305;28;20067;-72
2023/06/21 08:50:29;;;;;;;8.20;3.75;;;23.30;99.90;;;;;;5021850;28;20064;-72
2023/06/21 08:52:59;;;;;;;11.65;4.45;;;23.40;99.90;;;;;;5028932;28;20389;-72
2023/06/21 08:55:27;;;;;;;9.55;4.65;;;23.40;99.90;;;;;;5021895;28;20109;-72
2023/06/21 08:58:03;;;;;;;11.70;4.70;;;23.40;99.90;;;;;;5015578;28;20026;-73
2023/06/21 09:00:34;;;;;;;10.57;4.70;;;23.40;99.90;;;;;;5013093;28;20045;-72
2023/06/21 09:03:12;;;;;;;8.40;4.60;;;23.50;99.90;;;;;;5026248;28;20100;-72
2023/06/21 09:05:52;;;;;;;9.90;4.55;;;23.60;99.90;;;;;;5028138;28;20086;-72
2023/06/21 09:08:19;;;;;;;9.27;4.40;;;23.60;99.90;;;;;;5026702;28;20018;-72
2023/06/21 09:10:48;;;;;;;11.00;4.78;;;23.60;99.90;;;;;;5023045;28;20029;-72
2023/06/21 09:13:14;;;;;;;9.48;4.85;;;23.80;99.90;;;;;;5029397;28;20595;-72
2023/06/21 09:15:41;;;;;;;7.93;4.72;;;24.00;99.90;;;;;;5029286;28;20021;-73
2023/06/21 09:18:07;;;;;;;11.25;4.78;;;24.10;99.90;;;;;;5030993;28;20025;-72
2023/06/21 09:20:32;;;;;;;12.40;5.95;;;24.20;99.90;;;;;;5031634;28;20452;-72
2023/06/21 09:22:59;;;;;;;9.25;4.60;;;24.30;99.90;;;;;;5028563;28;20109;-72
2023/06/21 09:25:26;;;;;;;10.65;5.30;;;24.40;99.90;;;;;;5015729;28;20022;-72
2023/06/21 09:27:53;;;;;;;12.85;6.35;;;24.40;99.90;;;;;;5015313;28;20041;-72
2023/06/21 09:30:20;;;;;;;12.50;6.30;;;24.40;99.90;;;;;;5023448;28;20025;-72
2023/06/21 09:32:46;;;;;;;9.13;5.10;;;24.40;99.90;;;;;;5022794;28;20031;-72
2023/06/21 09:35:13;;;;;;;10.45;5.65;;;24.50;99.90;;;;;;5021003;28;20046;-72
2023/06/21 09:37:39;;;;;;;10.73;5.88;;;24.50;99.90;;;;;;5024041;28;20036;-72
2023/06/21 09:40:05;;;;;;;9.45;4.97;;;24.40;99.90;;;;;;5024046;28;20021;-72
2023/06/21 09:42:34;;;;;;;9.95;5.20;;;24.40;99.90;;;;;;5024231;28;20033;-72
2023/06/21 09:45:00;;;;;;;12.23;5.60;;;24.70;99.90;;;;;;5017638;28;20042;-72
2023/06/21 09:47:30;;;;;;;9.85;4.78;;;24.70;99.90;;;;;;5023117;28;20091;-72
2023/06/21 09:49:56;;;;;;;10.15;4.97;;;24.80;99.90;;;;;;5021479;28;20021;-71
2023/06/21 09:52:23;;;;;;;8.60;4.35;;;24.90;99.90;;;;;;5015591;28;20049;-72
2023/06/21 09:54:50;;;;;;;11.88;4.90;;;24.80;99.90;;;;;;5022185;28;20077;-72
2023/06/21 09:57:16;;;;;;;9.90;4.53;;;24.90;99.90;;;;;;5017497;28;20095;-72
2023/06/21 09:59:42;;;;;;;7.97;4.18;;;24.90;99.90;;;;;;5015130;28;20034;-72
2023/06/21 10:02:08;;;;;;;8.40;4.47;;;24.90;99.90;;;;;;5016543;28;20388;-72
2023/06/21 10:04:44;;;;;;;9.43;4.90;;;25.00;99.90;;;;;;5024910;28;20112;-72
2023/06/21 10:07:14;;;;;;;7.57;3.95;;;25.20;99.90;;;;;;5027270;28;20144;-72
2023/06/21 10:09:40;;;;;;;10.02;4.93;;;25.30;99.90;;;;;;5019842;28;20381;-72
2023/06/21 10:12:09;;;;;;;8.73;3.85;;;25.50;99.90;;;;;;5021301;28;20480;-73
2023/06/21 10:14:35;;;;;;;5.95;3.85;;;25.60;99.90;;;;;;5026392;28;20018;-72
2023/06/21 10:17:02;;;;;;;8.07;4.07;;;25.80;99.90;;;;;;5031958;28;20028;-72
2023/06/21 10:19:29;;;;;;;12.32;4.40;;;25.90;99.90;;;;;;5022397;28;20026;-72
2023/06/21 10:22:06;;;;;;;14.18;6.03;;;26.00;99.90;;;;;;5013979;28;20061;-72
2023/06/21 10:24:52;;;;;;;8.35;4.43;;;26.00;99.90;;;;;;5025928;28;20018;-72
2023/06/21 10:27:18;;;;;;;;;;;26.00;99.90;;;;;;5011979;28;20480;-72
2023/06/21 10:29:48;;;;;;;7.85;4.78;;;26.10;99.90;;;;;;5026431;28;19948;-72
2023/06/21 10:32:14;;;;;;;6.82;3.60;;;26.20;99.90;;;;;;5032583;28;20079;-72
2023/06/21 10:34:42;;;;;;;7.85;2.70;;;26.30;99.90;;;;;;5028218;28;20353;-72
2023/06/21 10:37:15;;;;;;;8.13;3.97;;;26.40;99.90;;;;;;5022124;28;20022;-72
2023/06/21 10:39:41;;;;;;;8.40;4.60;;;26.40;99.90;;;;;;5034486;28;20026;-72
2023/06/21 10:42:09;;;;;;;15.02;4.20;;;26.30;99.90;;;;;;5024592;28;20275;-75
2023/06/21 10:44:37;;;;;;;9.60;4.70;;;26.40;99.90;;;;;;5019503;28;20050;-72
2023/06/21 10:47:03;;;;;;;10.85;5.15;;;26.40;99.90;;;;;;5035565;28;20037;-72
2023/06/21 10:49:30;;;;;;;8.80;3.35;;;26.30;99.90;;;;;;5026670;28;20087;-72
2023/06/21 10:51:57;;;;;;;8.57;4.20;;;26.20;99.90;;;;;;5031897;28;20025;-72
2023/06/21 10:54:25;;;;;;;7.68;3.47;;;26.10;99.90;;;;;;5029636;28;20018;-72
2023/06/21 10:56:51;;;;;;;10.18;4.43;;;26.00;99.90;;;;;;5018626;28;20481;-72
2023/06/21 10:59:19;;;;;;;9.73;4.38;;;26.00;99.90;;;;;;5034872;28;20100;-72
2023/06/21 11:01:44;;;;;;;10.07;4.60;;;25.90;99.90;;;;;;5024895;28;20022;-73
2023/06/21 11:04:10;;;;;;;11.68;5.93;;;25.80;99.90;;;;;;5034879;28;20018;-73
2023/06/21 11:06:37;;;;;;;13.27;5.90;;;25.80;99.90;;;;;;5027101;28;20761;-73
2023/06/21 11:09:16;;;;;;;13.63;6.60;;;25.70;99.90;;;;;;5028093;28;20087;-72
2023/06/21 11:11:54;;;;;;;12.70;6.05;;;25.70;99.90;;;;;;5019222;28;20017;-72
2023/06/21 11:14:30;;;;;;;9.98;5.43;;;25.50;99.90;;;;;;5019222;28;20092;-72
2023/06/21 11:17:12;;;;;;;9.38;5.03;;;25.30;99.90;;;;;;5024906;28;20037;-72
2023/06/21 11:19:38;;;;;;;12.00;6.03;;;25.40;99.90;;;;;;5026086;28;20034;-72
2023/06/21 11:22:26;;;;;;;13.93;6.80;;;25.50;99.90;;;;;;5030296;28;20009;-73
2023/06/21 11:24:59;;;;;;;9.55;6.15;;;25.50;99.90;;;;;;5028475;28;20034;-73
2023/06/21 11:27:26;;;;;;;13.18;6.35;;;25.50;99.90;;;;;;5029284;28;20034;-73
2023/06/21 11:30:03;;;;;;;13.73;6.78;;;25.50;99.90;;;;;;5029555;28;20017;-72
2023/06/21 11:32:29;;;;;;;12.20;6.57;;;25.50;99.90;;;;;;5031894;28;20506;-73
2023/06/21 11:34:58;;;;;;;14.13;6.80;;;25.60;99.90;;;;;;5025063;28;20024;-73
2023/06/21 11:37:32;;;;;;;11.20;5.93;;;25.60;99.90;;;;;;5028018;28;20018;-73
2023/06/21 11:40:00;;;;;;;11.30;6.22;;;25.70;99.90;;;;;;5033643;28;20036;-73
2023/06/21 11:42:27;;;;;;;11.40;6.05;;;25.80;99.90;;;;;;5032058;28;20126;-72
2023/06/21 11:44:54;;;;;;;13.05;6.38;;;25.90;99.90;;;;;;5028042;28;20021;-72
2023/06/21 11:47:19;;;;;;;10.50;6.03;;;26.10;99.90;;;;;;5030209;28;20168;-72
2023/06/21 11:49:49;;;;;;;13.70;6.70;;;26.10;99.90;;;;;;5025456;28;20145;-72
2023/06/21 11:52:17;;;;;;;13.18;7.20;;;26.00;99.90;;;;;;5024384;28;20096;-72
2023/06/21 11:54:42;;;;;;;11.65;6.63;;;25.90;99.90;;;;;;5033571;28;20535;-72
2023/06/21 11:57:09;;;;;;;9.90;6.18;;;25.90;99.90;;;;;;5030524;28;20026;-76
2023/06/21 11:59:35;;;;;;;19.63;12.82;;;25.70;99.90;;;;;;5024641;28;20104;-72
2023/06/21 12:02:16;;;;;;;25.40;16.17;;;25.70;99.90;;;;;;5026204;28;20546;-72
2023/06/21 12:04:43;;;;;;;14.20;7.68;;;25.90;99.90;;;;;;5029057;28;20022;-72
2023/06/21 12:07:10;;;;;;;13.55;7.00;;;25.80;99.90;;;;;;5026767;28;20087;-73
2023/06/21 12:09:38;;;;;;;9.98;5.90;;;25.70;99.90;;;;;;5031447;28;20037;-73
2023/06/21 12:12:06;;;;;;;13.48;6.38;;;25.60;99.90;;;;;;5032633;28;20104;-72
2023/06/21 12:14:31;;;;;;;13.63;6.60;;;25.70;99.90;;;;;;5023459;28;20094;-72
2023/06/21 12:16:59;;;;;;;12.35;6.30;;;25.80;99.90;;;;;;5023566;28;20103;-73
2023/06/21 12:19:25;;;;;;;10.57;5.90;;;25.90;99.90;;;;;;5031406;28;20463;-73
2023/06/21 12:21:51;;;;;;;12.98;6.35;;;26.00;99.90;;;;;;5016688;28;20014;-73
2023/06/21 12:24:29;;;;;;;14.93;6.90;;;26.00;99.90;;;;;;5031055;28;20036;-73
2023/06/21 12:26:57;;;;;;;13.63;7.03;;;25.80;99.90;;;;;;5024401;28;20034;-73
2023/06/21 12:29:25;;;;;;;12.35;7.35;;;25.70;99.90;;;;;;5020576;28;20030;-73
2023/06/21 12:31:50;;;;;;;12.70;6.82;;;25.60;99.90;;;;;;5021178;28;20097;-72
2023/06/21 12:34:17;;;;;;;12.27;7.03;;;25.60;99.90;;;;;;5021072;28;20053;-72
2023/06/21 12:36:46;;;;;;;13.63;7.45;;;25.60;99.90;;;;;;5019374;28;20028;-72
2023/06/21 12:39:14;;;;;;;10.40;7.65;;;25.60;99.90;;;;;;5033260;28;20413;-72